WIDD METAR and TAF | Updated Today

WIDD METAR

Hang Nadim International Airport

Observation time: 32 min. ago

WIDD 062000Z 00000KT 9000 SCT014 25/24 Q1010 NOSIG

Need help? Read our tutorial on how to read METARs or read the parsed version below.

Hang Nadim International Airport (WIDD) METAR

  • Weather conditions on Thu, 06 Oct 2022 20:00:00 +0000 (32 min. ago):
  • Present conditions: Dry
  • Clouds: Scattered at 427 meters
  • Visibility: 9000 meters
  • Wind: Calm
  • Temperature: 25 celsius
  • Dew point: 24 celsius
  • Pressure: 1010 millibars
  • Remarks: None


Useful to know...

WIDD TAF

Hang Nadim International Airport

TAF WIDD 061700Z 0618/0718 19006KT 6000 -RA SCT014 BECMG 0619/0621 NSW
Observation time: 3:32 hr. ago
Need help? Read our tutorial on how to read TAFs or read the parsed version below.

Parsed version of TAF for Hang Nadim International Airport (WIDD)

  • From 06 October at 18:00 UTC, to day 07 of the month at 18:00 UTC
  • Clouds: Scattered at 427 meters
  • Visibility: 6000 meters
  • Wind: 190 degrees at 6
  • Other: Light rain
  • Expected to arise soon, from 06 October at 19:00 UTC, to day 06 of the month at 21:00 UTC
  • Clouds: No significant weather are observed